Data for 03/27/2010

Time Sea-Level Adjusted Pressure Absolute Pressure Temperature Relative Humidity Dew Point   
(mb) (inHg) (mb) (inHg) (C) (F) (%) (C) (F)
00:05 1019 30.09 849 25.07 1.8 35.3 56 -6.1 21.1
00:10 1020 30.12 849 25.07 1.8 35.3 56 -6.1 20.9
00:15 1020 30.12 849 25.07 1.8 35.3 56 -6.1 20.9
00:20 1020 30.12 849 25.07 1.8 35.3 55 -6.2 20.9
00:25 1020 30.12 849 25.07 1.9 35.3 55 -6.3 20.6
00:30 1020 30.12 849 25.07 1.8 35.3 55 -6.3 20.7
00:35 1020 30.12 849 25.07 1.8 35.2 55 -6.3 20.7
00:40 1020 30.12 849 25.07 1.8 35.2 56 -6.1 21
00:45 1020 30.12 849 25.07 1.7 35.1 56 -6.1 21.1
00:50 1020 30.12 849 25.07 1.6 35 57 -6 21.2
00:55 1020 30.12 850 25.1 1.6 34.9 57 -6.1 21.1
01:00 1020 30.12 850 25.1 1.7 35.1 57 -6 21.2
01:05 1021 30.15 850 25.1 1.7 35 59 -5.5 22.1
01:10 1021 30.15 850 25.1 1.5 34.7 60 -5.4 22.2
01:15 1021 30.15 850 25.1 1.5 34.7 60 -5.4 22.3
01:20 1021 30.15 850 25.1 1.3 34.4 61 -5.3 22.5
01:25 1021 30.15 850 25.1 1.2 34.1 61 -5.5 22.1
01:30 1021 30.15 850 25.1 1.2 34.1 61 -5.6 22
01:35 1021 30.15 850 25.1 1.4 34.5 59 -5.8 21.6
01:40 1021 30.15 850 25.1 1.5 34.6 59 -5.6 21.9
01:45 1021 30.15 850 25.1 1.5 34.8 58 -5.9 21.3
01:50 1021 30.15 850 25.1 1.5 34.7 57 -6 21.2
01:55 1021 30.15 850 25.1 1.5 34.6 57 -6.1 21.1
02:00 1021 30.15 850 25.1 1.5 34.7 56 -6.3 20.7
02:05 1021 30.15 850 25.1 1.4 34.6 55 -6.6 20.1
02:10 1021 30.15 850 25.1 1.4 34.6 55 -6.5 20.2
02:15 1021 30.15 850 25.1 1.4 34.6 56 -6.4 20.4
02:20 1021 30.15 851 25.13 1.5 34.7 56 -6.4 20.4
02:25 1021 30.15 851 25.13 1.5 34.7 55 -6.5 20.2
02:30 1021 30.15 851 25.13 1.4 34.5 55 -6.6 20.1
02:35 1021 30.15 851 25.13 1.4 34.4 57 -6.3 20.6
02:40 1022 30.18 851 25.13 1.3 34.4 57 -6.3 20.6
02:45 1022 30.18 851 25.13 1.2 34.2 60 -5.8 21.6
02:50 1022 30.18 851 25.13 0.9 33.7 62 -5.6 21.9
02:55 1022 30.18 851 25.13 0.8 33.4 64 -5.3 22.5
03:00 1022 30.18 851 25.13 0.5 32.9 64 -5.5 22.1
03:05 1022 30.18 851 25.13 0.5 32.9 63 -5.8 21.6
03:10 1022 30.18 851 25.13 0.6 33 62 -5.8 21.6
03:15 1022 30.18 851 25.13 0.6 33 63 -5.7 21.7
03:20 1022 30.18 851 25.13 0.5 33 63 -5.8 21.6
03:25 1022 30.18 851 25.13 0.7 33.3 62 -5.7 21.7
03:30 1022 30.18 851 25.13 0.5 33 62 -5.8 21.5
03:35 1022 30.18 851 25.13 0.5 32.9 62 -5.9 21.3
03:40 1022 30.18 851 25.13 0.5 32.9 62 -5.9 21.4
03:45 1022 30.18 851 25.13 0.4 32.8 63 -5.8 21.6
03:50 1022 30.18 851 25.13 0.3 32.6 63 -5.9 21.4
03:55 1022 30.18 851 25.13 0.3 32.5 63 -5.9 21.3
04:00 1022 30.18 851 25.13 0.2 32.4 63 -6 21.2
04:05 1022 30.18 851 25.13 0.3 32.5 63 -6 21.3
04:10 1022 30.18 851 25.13 0.2 32.4 63 -6 21.2
04:15 1022 30.18 852 25.16 0.2 32.4 63 -6.1 21
04:20 1022 30.18 852 25.16 0.2 32.4 62 -6.3 20.7
04:25 1022 30.18 852 25.16 0.3 32.5 61 -6.3 20.6
04:30 1022 30.18 852 25.16 0.3 32.6 60 -6.5 20.3
04:35 1023 30.21 852 25.16 0.4 32.7 60 -6.5 20.3
04:40 1023 30.21 852 25.16 0.4 32.7 60 -6.4 20.5
04:45 1023 30.21 852 25.16 0.4 32.8 60 -6.4 20.4
04:50 1023 30.21 852 25.16 0.4 32.8 60 -6.5 20.3
04:55 1023 30.21 852 25.16 0.4 32.7 59 -6.7 20
05:00 1023 30.21 852 25.16 0.4 32.6 60 -6.5 20.2
05:05 1023 30.21 852 25.16 0.4 32.7 60 -6.5 20.2
05:10 1023 30.21 852 25.16 0.3 32.5 60 -6.5 20.2
05:15 1023 30.21 852 25.16 0.1 32.2 60 -6.8 19.7
05:20 1023 30.21 852 25.16 0.1 32.1 60 -6.7 20
05:25 1023 30.21 852 25.16 0.1 32.1 60 -6.8 19.8
05:30 1023 30.21 852 25.16 0.1 32.1 60 -6.9 19.6
05:35 1023 30.21 853 25.19 0.1 32.2 59 -6.9 19.6
05:40 1023 30.21 853 25.19 0.2 32.4 59 -6.8 19.8
05:45 1023 30.21 853 25.19 0.2 32.4 59 -6.9 19.6
05:50 1024 30.24 853 25.19 0.2 32.4 59 -6.8 19.7
05:55 1024 30.24 853 25.19 0.2 32.3 59 -6.9 19.6
06:00 1024 30.24 853 25.19 0.2 32.3 59 -6.9 19.6
06:05 1024 30.24 853 25.19 0.3 32.5 58 -7.1 19.2
06:10 1024 30.24 853 25.19 0.4 32.7 57 -7.1 19.3
06:15 1024 30.24 853 25.19 0.4 32.8 57 -7.1 19.3
06:20 1024 30.24 853 25.19 0.5 32.8 58 -6.9 19.5
06:25 1024 30.24 853 25.19 0.5 32.9 58 -6.8 19.8
06:30 1024 30.24 853 25.19 0.3 32.5 62 -6.1 21
06:35 1024 30.24 853 25.19 -0.1 31.8 62 -6.5 20.3
06:40 1024 30.24 853 25.19 0 32 60 -6.8 19.8
06:45 1024 30.24 853 25.19 0.2 32.4 59 -6.8 19.8
06:50 1024 30.24 853 25.19 0.4 32.6 59 -6.8 19.7
06:55 1024 30.24 853 25.19 0.5 32.9 58 -6.9 19.6
07:00 1024 30.24 853 25.19 0.5 32.9 57 -7 19.4
07:05 1024 30.24 853 25.19 0.5 32.9 58 -6.9 19.5
07:10 1024 30.24 853 25.19 0.4 32.6 60 -6.4 20.4
07:15 1024 30.24 853 25.19 0.2 32.4 60 -6.7 19.9
07:20 1024 30.24 854 25.22 0.2 32.4 60 -6.7 19.9
07:25 1024 30.24 854 25.22 0.2 32.4 59 -6.9 19.6
07:30 1024 30.24 854 25.22 0.3 32.6 57 -7.1 19.2
07:35 1024 30.24 854 25.22 0.6 33.1 57 -7 19.4
07:40 1025 30.27 854 25.22 0.8 33.4 57 -6.9 19.6
07:45 1025 30.27 854 25.22 0.7 33.3 57 -6.9 19.6
07:50 1025 30.27 854 25.22 0.7 33.3 58 -6.5 20.3
07:55 1025 30.27 854 25.22 0.7 33.3 59 -6.3 20.6
08:00 1025 30.27 854 25.22 0.7 33.3 60 -6.2 20.9
08:05 1025 30.27 854 25.22 0.8 33.4 57 -6.7 19.9
08:10 1025 30.27 854 25.22 1 33.8 55 -7.2 19.1
08:15 1025 30.27 854 25.22 1.3 34.3 53 -7.4 18.7
08:20 1025 30.27 854 25.22 1.5 34.6 51 -7.6 18.3
08:25 1025 30.27 854 25.22 1.6 34.9 51 -7.6 18.4
08:30 1025 30.27 854 25.22 1.7 35 51 -7.5 18.5
08:35 1025 30.27 854 25.22 1.7 35.1 50 -7.5 18.5
08:40 1025 30.27 854 25.22 1.8 35.2 51 -7.4 18.6
08:45 1025 30.27 854 25.22 1.8 35.3 51 -7.2 19
08:50 1025 30.27 854 25.22 2 35.6 50 -7.3 18.9
08:55 1025 30.27 854 25.22 2.1 35.7 51 -7.1 19.2
09:00 1025 30.27 854 25.22 2 35.6 51 -7.1 19.2
09:05 1025 30.27 854 25.22 2.1 35.9 51 -7.1 19.3
09:10 1025 30.27 854 25.22 2.3 36.1 49 -7.3 18.8
09:15 1025 30.27 854 25.22 2.3 36.2 49 -7.2 19.1
09:20 1025 30.27 854 25.22 2.7 36.9 48 -7.3 18.9
09:25 1025 30.27 854 25.22 3 37.3 47 -7.2 19
09:30 1025 30.27 854 25.22 3.1 37.5 47 -7.3 18.8
09:35 1025 30.27 854 25.22 2.9 37.3 47 -7.3 18.9
09:40 1025 30.27 854 25.22 3.1 37.6 46 -7.5 18.5
09:45 1025 30.27 854 25.22 3 37.4 46 -7.6 18.3
09:50 1025 30.27 854 25.22 3.1 37.6 46 -7.5 18.5
09:55 1025 30.27 854 25.22 3 37.3 45 -7.9 17.8
10:00 1025 30.27 854 25.22 3 37.3 43 -8.3 17
10:05 1025 30.27 854 25.22 3.1 37.5 44 -8.1 17.4
10:10 1025 30.27 854 25.22 3.5 38.3 42 -8.3 17
10:15 1025 30.27 854 25.22 3.7 38.7 42 -8 17.6
10:20 1025 30.27 854 25.22 3.3 38 43 -8.1 17.5
10:25 1025 30.27 854 25.22 3.3 37.9 42 -8.3 17
10:30 1025 30.27 854 25.22 3.4 38.2 41 -8.6 16.5
10:35 1025 30.27 855 25.25 3.7 38.7 40 -8.6 16.6
10:40 1025 30.27 854 25.22 4.5 40.1 37 -8.8 16.1
10:45 1025 30.27 854 25.22 5.3 41.5 38 -7.8 17.9
10:50 1025 30.27 854 25.22 4.9 40.7 38 -8.3 17
10:55 1025 30.27 854 25.22 5.4 41.8 35 -8.7 16.3
11:00 1025 30.27 855 25.25 5.8 42.4 35 -8.5 16.7
11:05 1025 30.27 855 25.25 5.2 41.4 36 -8.6 16.5
11:10 1025 30.27 855 25.25 5.7 42.3 34 -9 15.9
11:15 1025 30.27 855 25.25 6.4 43.6 33 -8.7 16.4
11:20 1025 30.27 854 25.22 5.5 42 34 -9 15.7
11:25 1025 30.27 854 25.22 5.9 42.7 33 -9.1 15.6
11:30 1025 30.27 854 25.22 6.6 43.9 32 -9 15.8
11:35 1025 30.27 854 25.22 7.1 44.8 31 -8.9 16.1
11:40 1025 30.27 854 25.22 7.1 44.7 31 -9 15.8
11:45 1025 30.27 854 25.22 7.1 44.8 30 -9.3 15.3
11:50 1025 30.27 854 25.22 7 44.6 30 -9.3 15.2
11:55 1025 30.27 854 25.22 7 44.6 31 -8.8 16.1
12:00 1025 30.27 854 25.22 7 44.5 31 -9 15.8
12:05 1025 30.27 854 25.22 7.5 45.5 31 -8.4 16.9
12:10 1025 30.27 854 25.22 7.1 44.9 30 -9.2 15.4
12:15 1025 30.27 854 25.22 7.7 45.9 30 -8.9 16
12:20 1025 30.27 854 25.22 8 46.3 30 -8.7 16.3
12:25 1025 30.27 854 25.22 7.9 46.2 30 -8.5 16.6
12:30 1025 30.27 854 25.22 7.7 45.8 31 -8.6 16.6
12:35 1025 30.27 854 25.22 7.2 44.9 30 -9.5 14.9
12:40 1025 30.27 854 25.22 7.3 45.1 29 -9.5 14.9
12:45 1025 30.27 854 25.22 6.7 44.1 32 -9 15.7
12:50 1025 30.27 854 25.22 6.8 44.2 29 -10 13.9
12:55 1025 30.27 854 25.22 7.5 45.5 30 -9.1 15.6
13:00 1025 30.27 854 25.22 8.1 46.6 28 -9.4 15
13:05 1025 30.27 854 25.22 8.4 47.2 29 -8.7 16.4
13:10 1025 30.27 854 25.22 8.5 47.3 27 -9.2 15.4
13:15 1025 30.27 854 25.22 8.5 47.4 28 -9.1 15.6
13:20 1024 30.24 854 25.22 8.4 47.1 27 -9.4 15
13:25 1024 30.24 854 25.22 8.6 47.5 27 -9.2 15.4
13:30 1024 30.24 854 25.22 8.9 48.1 27 -9 15.9
13:35 1024 30.24 854 25.22 8.8 47.9 28 -8.7 16.4
13:40 1024 30.24 854 25.22 8.6 47.4 29 -8.5 16.6
13:45 1024 30.24 854 25.22 8.6 47.4 27 -9.3 15.2
13:50 1024 30.24 854 25.22 8.7 47.7 27 -9.3 15.3
13:55 1024 30.24 854 25.22 9.1 48.4 26 -9.4 15.1
14:00 1024 30.24 854 25.22 9 48.1 27 -9.2 15.4
14:05 1024 30.24 854 25.22 9.1 48.4 26 -9.5 14.9
14:10 1024 30.24 854 25.22 9.5 49 25 -9.8 14.3
14:15 1024 30.24 854 25.22 9 48.2 25 -9.9 14.2
14:20 1024 30.24 854 25.22 9.6 49.3 25 -9.5 14.8
14:25 1024 30.24 854 25.22 10 50 24 -9.4 15.1
14:30 1024 30.24 854 25.22 9.7 49.4 25 -9.4 15
14:35 1024 30.24 854 25.22 9.6 49.3 25 -9.3 15.2
14:40 1024 30.24 854 25.22 9.5 49.1 26 -9.3 15.3
14:45 1024 30.24 853 25.19 9 48.2 26 -9.8 14.4
14:50 1024 30.24 853 25.19 9.3 48.8 25 -9.5 14.8
14:55 1024 30.24 853 25.19 9.8 49.6 26 -9 15.8
15:00 1024 30.24 853 25.19 9.3 48.7 25 -9.7 14.5
15:05 1024 30.24 853 25.19 9.4 49 26 -9.1 15.6
15:10 1024 30.24 853 25.19 10.1 50.2 25 -8.9 15.9
15:15 1024 30.24 853 25.19 10.7 51.2 24 -9.3 15.3
15:20 1024 30.24 853 25.19 10.5 50.8 24 -9.1 15.6
15:25 1024 30.24 853 25.19 9.9 49.9 24 -9.7 14.5
15:30 1024 30.24 853 25.19 10.1 50.1 24 -9.4 15
15:35 1024 30.24 853 25.19 10.4 50.7 25 -8.9 16
15:40 1024 30.24 853 25.19 10.5 50.9 24 -9.5 15
15:45 1024 30.24 853 25.19 10.9 51.6 23 -9.3 15.2
15:50 1024 30.24 853 25.19 11.2 52.1 23 -9.5 15
15:55 1024 30.24 853 25.19 10.8 51.4 23 -9.5 14.9
16:00 1024 30.24 853 25.19 11 51.9 23 -9 15.7
16:05 1023 30.21 853 25.19 10.6 51.1 24 -9 15.8
16:10 1023 30.21 853 25.19 10.9 51.6 24 -9 15.9
16:15 1023 30.21 853 25.19 10.6 51.1 25 -8.3 17
16:20 1023 30.21 853 25.19 10.1 50.3 25 -9 15.9
16:25 1023 30.21 853 25.19 10.5 51 24 -9 15.8
16:30 1023 30.21 853 25.19 11.1 52 24 -8.9 16.1
16:35 1023 30.21 853 25.19 11 51.8 24 -8.6 16.5
16:40 1023 30.21 853 25.19 9.6 49.3 26 -8.9 15.9
16:45 1023 30.21 853 25.19 10.3 50.6 24 -9.4 15.2
16:50 1023 30.21 853 25.19 10.8 51.4 25 -8.6 16.5
16:55 1023 30.21 853 25.19 11 51.8 24 -8.8 16.1
17:00 1023 30.21 853 25.19 11 51.8 24 -8.7 16.4
17:05 1023 30.21 853 25.19 11 51.8 23 -9.4 15
17:10 1023 30.21 853 25.19 11.5 52.6 23 -8.9 16
17:15 1023 30.21 853 25.19 10.9 51.7 24 -9 15.9
17:20 1023 30.21 853 25.19 10.3 50.5 24 -9.3 15.2
17:25 1023 30.21 852 25.16 10.4 50.7 24 -9.3 15.2
17:30 1023 30.21 852 25.16 10.5 50.8 24 -9.4 15.1
17:35 1023 30.21 852 25.16 10.2 50.3 25 -9 15.7
17:40 1023 30.21 852 25.16 10.6 51 25 -8.9 16
17:45 1023 30.21 852 25.16 11 51.7 23 -9.5 14.8
17:50 1023 30.21 852 25.16 10.8 51.4 24 -8.8 16.1
17:55 1023 30.21 852 25.16 10.5 50.9 24 -9.2 15.4
18:00 1023 30.21 852 25.16 10.4 50.7 25 -8.6 16.6
18:05 1023 30.21 852 25.16 10.1 50.1 25 -9.3 15.3
18:10 1023 30.21 852 25.16 9.8 49.7 25 -9 15.7
18:15 1023 30.21 852 25.16 9.9 49.7 25 -9.2 15.5
18:20 1023 30.21 852 25.16 9.9 49.7 26 -8.9 15.9
18:25 1023 30.21 852 25.16 9.8 49.7 25 -9.1 15.6
18:30 1023 30.21 852 25.16 10 50 25 -9.2 15.4
18:35 1023 30.21 852 25.16 9.4 48.8 27 -8.6 16.5
18:40 1023 30.21 852 25.16 9.5 49.1 27 -8.4 17
18:45 1023 30.21 852 25.16 9.6 49.4 28 -7.9 17.8
18:50 1023 30.21 852 25.16 9.4 48.9 28 -8 17.6
18:55 1023 30.21 852 25.16 9 48.1 30 -7.7 18.2
19:00 1023 30.21 852 25.16 8.2 46.7 31 -7.8 17.9
19:05 1023 30.21 852 25.16 8.3 47 30 -8.3 17.1
19:10 1023 30.21 852 25.16 8.4 47.1 30 -8.2 17.3
19:15 1023 30.21 852 25.16 8.2 46.7 31 -7.8 18
19:20 1023 30.21 852 25.16 7.9 46.2 31 -8.2 17.3
19:25 1023 30.21 852 25.16 8 46.4 32 -7.6 18.4
19:30 1023 30.21 852 25.16 7.6 45.6 32 -7.9 17.8
19:35 1023 30.21 852 25.16 7.4 45.3 33 -7.8 17.9
19:40 1023 30.21 852 25.16 7.5 45.5 33 -7.7 18.2
19:45 1023 30.21 852 25.16 7.7 45.8 33 -7.6 18.3
19:50 1023 30.21 852 25.16 7.6 45.7 36 -6.4 20.4
19:55 1023 30.21 852 25.16 7 44.6 38 -6.4 20.5
20:00 1023 30.21 852 25.16 6.7 44.1 39 -6.4 20.5
20:05 1023 30.21 852 25.16 6.5 43.7 37 -7.1 19.2
20:10 1023 30.21 852 25.16 6.4 43.6 41 -5.9 21.4
20:15 1023 30.21 852 25.16 6 42.9 43 -5.7 21.8
20:20 1023 30.21 852 25.16 5.8 42.4 42 -6 21.2
20:25 1023 30.21 852 25.16 5.6 42.1 43 -6.1 20.9
20:30 1023 30.21 852 25.16 5.3 41.6 43 -6.1 21
20:35 1023 30.21 853 25.19 5.2 41.4 45 -5.9 21.4
20:40 1023 30.21 853 25.19 5 41 44 -6.1 20.9
20:45 1023 30.21 853 25.19 4.8 40.7 46 -5.8 21.5
20:50 1023 30.21 853 25.19 4.6 40.2 46 -6.1 21
20:55 1023 30.21 853 25.19 4.6 40.3 41 -7.7 18.1
21:00 1023 30.21 853 25.19 5.1 41.1 42 -6.9 19.5
21:05 1023 30.21 853 25.19 5 41.1 43 -6.6 20.2
21:10 1023 30.21 853 25.19 4.7 40.4 47 -5.7 21.7
21:15 1023 30.21 853 25.19 4.2 39.5 49 -5.7 21.7
21:20 1023 30.21 853 25.19 3.7 38.6 51 -5.6 21.8
21:25 1024 30.24 853 25.19 3.4 38.1 50 -6 21.2
21:30 1023 30.21 853 25.19 3.1 37.5 52 -5.9 21.4
21:35 1024 30.24 853 25.19 2.8 37 53 -5.8 21.5
21:40 1024 30.24 853 25.19 2.7 36.9 52 -6.2 20.9
21:45 1024 30.24 853 25.19 2.8 37.1 51 -6.3 20.6
21:50 1024 30.24 853 25.19 2.9 37.3 50 -6.5 20.3
21:55 1023 30.21 853 25.19 3.1 37.6 49 -6.6 20.2
22:00 1023 30.21 853 25.19 3.2 37.7 49 -6.6 20.2
22:05 1023 30.21 853 25.19 3.2 37.8 49 -6.5 20.4
22:10 1023 30.21 853 25.19 3 37.4 49 -6.7 19.9
22:15 1023 30.21 853 25.19 3.1 37.6 46 -7.3 18.8
22:20 1023 30.21 853 25.19 3.5 38.2 44 -7.7 18.1
22:25 1023 30.21 853 25.19 3.6 38.5 44 -7.5 18.5
22:30 1023 30.21 853 25.19 3.6 38.5 43 -7.9 17.8
22:35 1023 30.21 853 25.19 3.6 38.5 46 -6.9 19.5
22:40 1023 30.21 853 25.19 3.4 38 45 -7.5 18.5
22:45 1023 30.21 853 25.19 3.5 38.3 43 -7.9 17.8
22:50 1023 30.21 852 25.16 3.8 38.8 41 -8.4 17
22:55 1023 30.21 852 25.16 3.9 39 42 -7.9 17.8
23:00 1023 30.21 852 25.16 3.6 38.5 43 -8 17.6
23:05 1023 30.21 853 25.19 3.5 38.3 45 -7.4 18.6
23:10 1023 30.21 852 25.16 3.4 38.1 43 -7.9 17.7
23:15 1023 30.21 852 25.16 3.5 38.3 43 -8.1 17.5
23:20 1023 30.21 853 25.19 3.6 38.4 43 -7.8 18
23:25 1023 30.21 852 25.16 3.5 38.3 43 -7.8 17.9
23:30 1023 30.21 852 25.16 3.5 38.3 44 -7.6 18.3
23:35 1023 30.21 852 25.16 3.5 38.2 44 -7.7 18.2
23:40 1023 30.21 853 25.19 3.3 38 45 -7.4 18.6
23:45 1023 30.21 853 25.19 3.2 37.7 46 -7.2 19
23:50 1023 30.21 853 25.19 2.9 37.2 48 -7.2 19.1
23:55 1023 30.21 853 25.19 2.7 36.8 48 -7.2 19
24:00 1023 30.21 853 25.19 3 37.4 45 -7.8 18